sensor_id;sensor_type;location;lat;lon;timestamp;pressure;altitude;pressure_sealevel;temperature;humidity
36378;BME280;22402;42.746;23.606;2023-05-02T00:00:49;93811.16;;;14.92;78.96
36378;BME280;22402;42.746;23.606;2023-05-02T00:03:15;93807.88;;;14.90;78.66
36378;BME280;22402;42.746;23.606;2023-05-02T00:05:41;93818.56;;;14.88;78.68
36378;BME280;22402;42.746;23.606;2023-05-02T00:08:07;93814.44;;;14.86;79.03
36378;BME280;22402;42.746;23.606;2023-05-02T00:10:32;93824.44;;;14.82;78.90
36378;BME280;22402;42.746;23.606;2023-05-02T00:12:58;93827.06;;;14.82;79.00
36378;BME280;22402;42.746;23.606;2023-05-02T00:15:23;93826.41;;;14.80;79.32
36378;BME280;22402;42.746;23.606;2023-05-02T00:17:51;93824.09;;;14.77;79.34
36378;BME280;22402;42.746;23.606;2023-05-02T00:20:17;93829.53;;;14.75;79.03
36378;BME280;22402;42.746;23.606;2023-05-02T00:22:42;93827.22;;;14.72;78.92
36378;BME280;22402;42.746;23.606;2023-05-02T00:25:08;93833.75;;;14.68;79.31
36378;BME280;22402;42.746;23.606;2023-05-02T00:27:33;93830.47;;;14.66;79.30
36378;BME280;22402;42.746;23.606;2023-05-02T00:29:59;93838.50;;;14.65;79.25
36378;BME280;22402;42.746;23.606;2023-05-02T00:32:25;93827.50;;;14.61;79.11
36378;BME280;22402;42.746;23.606;2023-05-02T00:34:51;93821.75;;;14.57;79.02
36378;BME280;22402;42.746;23.606;2023-05-02T00:37:16;93819.59;;;14.53;79.48
36378;BME280;22402;42.746;23.606;2023-05-02T00:39:42;93825.13;;;14.50;79.20
36378;BME280;22402;42.746;23.606;2023-05-02T00:42:07;93819.41;;;14.46;79.39
36378;BME280;22402;42.746;23.606;2023-05-02T00:44:33;93819.72;;;14.43;79.46
36378;BME280;22402;42.746;23.606;2023-05-02T00:47:00;93811.34;;;14.40;79.36
36378;BME280;22402;42.746;23.606;2023-05-02T00:49:26;93812.63;;;14.35;79.67
36378;BME280;22402;42.746;23.606;2023-05-02T00:51:52;93813.59;;;14.34;79.81
36378;BME280;22402;42.746;23.606;2023-05-02T00:54:17;93811.13;;;14.33;79.87
36378;BME280;22402;42.746;23.606;2023-05-02T00:56:43;93809.63;;;14.30;79.62
36378;BME280;22402;42.746;23.606;2023-05-02T00:59:09;93812.56;;;14.27;79.81
36378;BME280;22402;42.746;23.606;2023-05-02T01:04:49;93825.19;;;14.24;80.08
36378;BME280;22402;42.746;23.606;2023-05-02T01:07:45;93814.03;;;14.22;79.83
36378;BME280;22402;42.746;23.606;2023-05-02T01:10:29;93825.81;;;14.18;80.36
36378;BME280;22402;42.746;23.606;2023-05-02T01:15:44;93834.81;;;14.15;80.40
36378;BME280;22402;42.746;23.606;2023-05-02T01:18:12;93834.16;;;14.13;80.08
36378;BME280;22402;42.746;23.606;2023-05-02T01:20:42;93837.75;;;14.12;80.38
36378;BME280;22402;42.746;23.606;2023-05-02T01:23:18;93838.75;;;14.11;80.31
36378;BME280;22402;42.746;23.606;2023-05-02T01:25:55;93841.69;;;14.08;80.39
36378;BME280;22402;42.746;23.606;2023-05-02T01:29:00;93846.25;;;14.06;80.33
36378;BME280;22402;42.746;23.606;2023-05-02T01:31:33;93835.38;;;14.01;80.51
36378;BME280;22402;42.746;23.606;2023-05-02T01:34:00;93842.44;;;14.00;80.49
36378;BME280;22402;42.746;23.606;2023-05-02T01:36:28;93842.59;;;13.99;80.54
36378;BME280;22402;42.746;23.606;2023-05-02T01:38:56;93836.69;;;13.97;80.35
36378;BME280;22402;42.746;23.606;2023-05-02T01:41:25;93828.13;;;13.86;80.34
36378;BME280;22402;42.746;23.606;2023-05-02T01:43:54;93834.69;;;13.90;80.49
36378;BME280;22402;42.746;23.606;2023-05-02T01:46:22;93828.63;;;13.90;80.60
36378;BME280;22402;42.746;23.606;2023-05-02T01:48:50;93841.88;;;13.88;80.35
36378;BME280;22402;42.746;23.606;2023-05-02T01:51:17;93835.13;;;13.86;80.58
36378;BME280;22402;42.746;23.606;2023-05-02T01:53:47;93837.94;;;13.84;80.80
36378;BME280;22402;42.746;23.606;2023-05-02T01:56:16;93832.00;;;13.82;80.54
36378;BME280;22402;42.746;23.606;2023-05-02T01:58:43;93827.91;;;13.80;80.66
36378;BME280;22402;42.746;23.606;2023-05-02T02:01:10;93829.88;;;13.78;80.74
36378;BME280;22402;42.746;23.606;2023-05-02T02:03:37;93831.00;;;13.75;80.69
36378;BME280;22402;42.746;23.606;2023-05-02T02:06:03;93833.75;;;13.74;80.78
36378;BME280;22402;42.746;23.606;2023-05-02T02:08:29;93832.25;;;13.71;80.96
36378;BME280;22402;42.746;23.606;2023-05-02T02:10:59;93825.38;;;13.70;80.67
36378;BME280;22402;42.746;23.606;2023-05-02T02:13:38;93824.72;;;13.68;80.72
36378;BME280;22402;42.746;23.606;2023-05-02T02:16:06;93830.25;;;13.65;80.67
36378;BME280;22402;42.746;23.606;2023-05-02T02:18:36;93829.44;;;13.64;80.89
36378;BME280;22402;42.746;23.606;2023-05-02T02:21:05;93827.00;;;13.63;80.75
36378;BME280;22402;42.746;23.606;2023-05-02T02:23:32;93833.34;;;13.60;80.84
36378;BME280;22402;42.746;23.606;2023-05-02T02:26:00;93834.47;;;13.58;80.89
36378;BME280;22402;42.746;23.606;2023-05-02T02:28:27;93824.31;;;13.55;80.78
36378;BME280;22402;42.746;23.606;2023-05-02T02:30:52;93825.44;;;13.52;80.32
36378;BME280;22402;42.746;23.606;2023-05-02T02:33:18;93836.06;;;13.51;80.60
36378;BME280;22402;42.746;23.606;2023-05-02T02:35:52;93835.41;;;13.49;80.68
36378;BME280;22402;42.746;23.606;2023-05-02T02:38:32;93846.19;;;13.45;80.70
36378;BME280;22402;42.746;23.606;2023-05-02T02:41:26;93840.25;;;13.43;80.77
36378;BME280;22402;42.746;23.606;2023-05-02T02:44:14;93843.19;;;13.40;80.51
36378;BME280;22402;42.746;23.606;2023-05-02T02:46:55;93833.00;;;13.37;80.46
36378;BME280;22402;42.746;23.606;2023-05-02T02:49:37;93838.56;;;13.34;80.72
36378;BME280;22402;42.746;23.606;2023-05-02T02:55:11;93828.00;;;13.26;80.40
36378;BME280;22402;42.746;23.606;2023-05-02T03:00:26;93838.59;;;13.25;80.67
36378;BME280;22402;42.746;23.606;2023-05-02T03:02:53;93844.16;;;13.21;80.50
36378;BME280;22402;42.746;23.606;2023-05-02T03:05:21;93846.91;;;13.20;80.59
36378;BME280;22402;42.746;23.606;2023-05-02T03:07:47;93847.19;;;13.17;80.47
36378;BME280;22402;42.746;23.606;2023-05-02T03:10:13;93817.59;;;12.98;80.41
36378;BME280;22402;42.746;23.606;2023-05-02T03:12:39;93850.28;;;13.12;80.61
36378;BME280;22402;42.746;23.606;2023-05-02T03:15:16;93851.25;;;13.11;80.57
36378;BME280;22402;42.746;23.606;2023-05-02T03:17:46;93850.72;;;13.08;80.53
36378;BME280;22402;42.746;23.606;2023-05-02T03:20:11;93864.78;;;13.07;80.53
36378;BME280;22402;42.746;23.606;2023-05-02T03:22:37;93860.50;;;13.06;80.62
36378;BME280;22402;42.746;23.606;2023-05-02T03:25:03;93864.56;;;13.00;80.26
36378;BME280;22402;42.746;23.606;2023-05-02T03:27:28;93870.47;;;13.02;80.52
36378;BME280;22402;42.746;23.606;2023-05-02T03:29:53;93876.81;;;12.99;80.74
36378;BME280;22402;42.746;23.606;2023-05-02T03:32:19;93880.41;;;12.98;80.46
36378;BME280;22402;42.746;23.606;2023-05-02T03:34:45;93873.53;;;12.97;80.52
36378;BME280;22402;42.746;23.606;2023-05-02T03:37:10;93874.50;;;12.96;80.77
36378;BME280;22402;42.746;23.606;2023-05-02T03:39:35;93880.69;;;12.95;80.68
36378;BME280;22402;42.746;23.606;2023-05-02T03:42:01;93883.47;;;12.94;80.96
36378;BME280;22402;42.746;23.606;2023-05-02T03:44:27;93884.59;;;12.91;80.88
36378;BME280;22402;42.746;23.606;2023-05-02T03:46:52;93882.94;;;12.90;81.09
36378;BME280;22402;42.746;23.606;2023-05-02T03:49:17;93882.94;;;12.90;80.80
36378;BME280;22402;42.746;23.606;2023-05-02T03:51:43;93897.00;;;12.89;80.99
36378;BME280;22402;42.746;23.606;2023-05-02T03:54:09;93895.19;;;12.90;81.29
36378;BME280;22402;42.746;23.606;2023-05-02T03:56:34;93890.94;;;12.89;81.13
36378;BME280;22402;42.746;23.606;2023-05-02T03:59:00;93895.38;;;12.88;81.09
36378;BME280;22402;42.746;23.606;2023-05-02T04:01:26;93900.59;;;12.88;81.16
36378;BME280;22402;42.746;23.606;2023-05-02T04:03:51;93902.22;;;12.89;80.92
36378;BME280;22402;42.746;23.606;2023-05-02T04:06:17;93891.75;;;12.89;81.50
36378;BME280;22402;42.746;23.606;2023-05-02T04:08:42;93899.44;;;12.91;81.22
36378;BME280;22402;42.746;23.606;2023-05-02T04:11:08;93886.53;;;12.89;81.47
36378;BME280;22402;42.746;23.606;2023-05-02T04:13:34;93894.91;;;12.93;81.95
36378;BME280;22402;42.746;23.606;2023-05-02T04:15:59;93893.09;;;12.93;81.77
36378;BME280;22402;42.746;23.606;2023-05-02T04:18:25;93900.66;;;12.96;82.02
36378;BME280;22402;42.746;23.606;2023-05-02T04:20:50;93888.41;;;12.97;81.92
36378;BME280;22402;42.746;23.606;2023-05-02T04:23:16;93891.69;;;12.99;81.81
36378;BME280;22402;42.746;23.606;2023-05-02T04:25:50;93904.34;;;13.04;82.35
36378;BME280;22402;42.746;23.606;2023-05-02T04:28:16;93890.28;;;13.05;82.26
36378;BME280;22402;42.746;23.606;2023-05-02T04:30:41;93894.41;;;13.07;81.96
36378;BME280;22402;42.746;23.606;2023-05-02T04:33:06;93891.78;;;13.07;82.09
36378;BME280;22402;42.746;23.606;2023-05-02T04:35:32;93896.59;;;13.12;82.24
36378;BME280;22402;42.746;23.606;2023-05-02T04:37:57;93896.59;;;13.12;82.46
36378;BME280;22402;42.746;23.606;2023-05-02T04:40:23;93895.13;;;13.17;82.36
36378;BME280;22402;42.746;23.606;2023-05-02T04:42:48;93894.03;;;13.20;82.42
36378;BME280;22402;42.746;23.606;2023-05-02T04:45:14;93890.47;;;13.21;82.39
36378;BME280;22402;42.746;23.606;2023-05-02T04:47:39;93891.94;;;13.23;82.74
36378;BME280;22402;42.746;23.606;2023-05-02T04:50:05;93907.53;;;13.25;82.99
36378;BME280;22402;42.746;23.606;2023-05-02T04:52:31;93885.47;;;13.28;82.69
36378;BME280;22402;42.746;23.606;2023-05-02T04:54:56;93889.44;;;13.32;82.96
36378;BME280;22402;42.746;23.606;2023-05-02T04:57:22;93889.13;;;13.35;83.21
36378;BME280;22402;42.746;23.606;2023-05-02T04:59:47;93894.88;;;13.38;83.34
36378;BME280;22402;42.746;23.606;2023-05-02T05:02:13;93903.28;;;13.42;83.37
36378;BME280;22402;42.746;23.606;2023-05-02T05:04:41;93887.09;;;13.47;83.60
36378;BME280;22402;42.746;23.606;2023-05-02T05:07:06;93872.66;;;13.42;83.95
36378;BME280;22402;42.746;23.606;2023-05-02T05:09:32;93883.72;;;13.54;83.88
36378;BME280;22402;42.746;23.606;2023-05-02T05:11:57;93891.97;;;13.59;83.94
36378;BME280;22402;42.746;23.606;2023-05-02T05:14:23;93891.50;;;13.64;84.23
36378;BME280;22402;42.746;23.606;2023-05-02T05:16:48;93896.13;;;13.70;84.13
36378;BME280;22402;42.746;23.606;2023-05-02T05:19:13;93901.06;;;13.73;84.50
36378;BME280;22402;42.746;23.606;2023-05-02T05:21:39;93907.66;;;13.77;84.79
36378;BME280;22402;42.746;23.606;2023-05-02T05:24:05;93894.25;;;13.80;84.58
36378;BME280;22402;42.746;23.606;2023-05-02T05:26:31;93897.91;;;13.87;85.11
36378;BME280;22402;42.746;23.606;2023-05-02T05:28:56;93863.88;;;13.70;84.97
36378;BME280;22402;42.746;23.606;2023-05-02T05:31:28;93892.34;;;13.90;85.36
36378;BME280;22402;42.746;23.606;2023-05-02T05:33:54;93902.72;;;14.00;85.41
36378;BME280;22402;42.746;23.606;2023-05-02T05:36:19;93906.53;;;14.06;85.55
36378;BME280;22402;42.746;23.606;2023-05-02T05:38:45;93910.53;;;14.10;85.59
36378;BME280;22402;42.746;23.606;2023-05-02T05:41:10;93903.59;;;14.09;83.30
36378;BME280;22402;42.746;23.606;2023-05-02T05:43:36;93910.53;;;14.18;82.07
36378;BME280;22402;42.746;23.606;2023-05-02T05:46:02;93910.22;;;14.21;81.70
36378;BME280;22402;42.746;23.606;2023-05-02T05:48:27;93909.28;;;14.22;81.90
36378;BME280;22402;42.746;23.606;2023-05-02T05:50:53;93913.22;;;14.26;81.59
36378;BME280;22402;42.746;23.606;2023-05-02T05:53:19;93910.28;;;14.29;81.17
36378;BME280;22402;42.746;23.606;2023-05-02T05:55:44;93918.66;;;14.33;81.03
36378;BME280;22402;42.746;23.606;2023-05-02T05:58:10;93912.28;;;14.35;80.28
36378;BME280;22402;42.746;23.606;2023-05-02T06:00:37;93914.47;;;14.40;79.76
36378;BME280;22402;42.746;23.606;2023-05-02T06:03:04;93917.72;;;14.42;79.57
36378;BME280;22402;42.746;23.606;2023-05-02T06:05:30;93914.66;;;14.47;78.93
36378;BME280;22402;42.746;23.606;2023-05-02T06:07:58;93888.00;;;14.33;78.19
36378;BME280;22402;42.746;23.606;2023-05-02T06:10:24;93913.25;;;14.52;77.94
36378;BME280;22402;42.746;23.606;2023-05-02T06:12:50;93920.63;;;14.57;77.34
36378;BME280;22402;42.746;23.606;2023-05-02T06:15:16;93927.22;;;14.61;76.55
36378;BME280;22402;42.746;23.606;2023-05-02T06:17:41;93921.66;;;14.64;76.58
36378;BME280;22402;42.746;23.606;2023-05-02T06:20:07;93921.16;;;14.69;75.94
36378;BME280;22402;42.746;23.606;2023-05-02T06:22:34;93912.84;;;14.73;75.34
36378;BME280;22402;42.746;23.606;2023-05-02T06:24:59;93922.03;;;14.77;74.46
36378;BME280;22402;42.746;23.606;2023-05-02T06:27:25;93914.81;;;14.79;74.20
36378;BME280;22402;42.746;23.606;2023-05-02T06:29:51;93903.69;;;14.86;73.28
36378;BME280;22402;42.746;23.606;2023-05-02T06:32:16;93908.47;;;14.90;73.29
36378;BME280;22402;42.746;23.606;2023-05-02T06:34:43;93913.56;;;14.92;72.57
36378;BME280;22402;42.746;23.606;2023-05-02T06:37:12;93904.69;;;14.93;71.65
36378;BME280;22402;42.746;23.606;2023-05-02T06:39:38;93908.97;;;15.02;71.00
36378;BME280;22402;42.746;23.606;2023-05-02T06:42:03;93909.34;;;15.07;70.46
36378;BME280;22402;42.746;23.606;2023-05-02T06:44:29;93917.69;;;15.11;69.84
36378;BME280;22402;42.746;23.606;2023-05-02T06:46:54;93910.34;;;15.14;69.24
36378;BME280;22402;42.746;23.606;2023-05-02T06:49:24;93903.78;;;15.18;68.74
36378;BME280;22402;42.746;23.606;2023-05-02T06:51:50;93903.47;;;15.21;67.88
36378;BME280;22402;42.746;23.606;2023-05-02T06:54:15;93913.31;;;15.27;67.91
36378;BME280;22402;42.746;23.606;2023-05-02T06:56:42;93915.47;;;15.32;67.71
36378;BME280;22402;42.746;23.606;2023-05-02T06:59:07;93889.22;;;15.32;67.29
36378;BME280;22402;42.746;23.606;2023-05-02T07:01:33;93912.03;;;15.40;67.32
36378;BME280;22402;42.746;23.606;2023-05-02T07:04:00;93902.84;;;15.44;67.22
36378;BME280;22402;42.746;23.606;2023-05-02T07:06:25;93912.84;;;15.48;66.45
36378;BME280;22402;42.746;23.606;2023-05-02T07:08:52;93902.84;;;15.52;66.58
36378;BME280;22402;42.746;23.606;2023-05-02T07:11:17;93906.47;;;15.59;66.32
36378;BME280;22402;42.746;23.606;2023-05-02T07:13:43;93906.16;;;15.62;65.85
36378;BME280;22402;42.746;23.606;2023-05-02T07:16:09;93908.16;;;15.68;66.08
36378;BME280;22402;42.746;23.606;2023-05-02T07:18:34;93909.78;;;15.69;65.02
36378;BME280;22402;42.746;23.606;2023-05-02T07:21:00;93916.88;;;15.77;65.06
36378;BME280;22402;42.746;23.606;2023-05-02T07:23:25;93913.91;;;15.80;62.54
36378;BME280;22402;42.746;23.606;2023-05-02T07:25:51;93917.03;;;15.84;60.97
36378;BME280;22402;42.746;23.606;2023-05-02T07:28:16;93915.06;;;15.86;61.20
36378;BME280;22402;42.746;23.606;2023-05-02T07:30:42;93910.63;;;15.86;60.59
36378;BME280;22402;42.746;23.606;2023-05-02T07:33:08;93920.28;;;15.94;60.76
36378;BME280;22402;42.746;23.606;2023-05-02T07:35:33;93918.19;;;15.98;60.50
36378;BME280;22402;42.746;23.606;2023-05-02T07:37:58;93921.28;;;16.01;59.63
36378;BME280;22402;42.746;23.606;2023-05-02T07:40:24;93920.97;;;16.04;59.77
36378;BME280;22402;42.746;23.606;2023-05-02T07:42:49;93927.53;;;16.08;58.18
36378;BME280;22402;42.746;23.606;2023-05-02T07:45:15;93922.75;;;16.12;56.78
36378;BME280;22402;42.746;23.606;2023-05-02T07:47:40;93920.16;;;16.04;57.60
36378;BME280;22402;42.746;23.606;2023-05-02T07:50:06;93923.75;;;16.11;58.01
36378;BME280;22402;42.746;23.606;2023-05-02T07:52:33;93919.28;;;16.20;59.40
36378;BME280;22402;42.746;23.606;2023-05-02T07:54:59;93934.59;;;16.24;60.42
36378;BME280;22402;42.746;23.606;2023-05-02T07:57:25;93937.69;;;16.28;59.22
36378;BME280;22402;42.746;23.606;2023-05-02T07:59:50;93931.28;;;16.30;58.76
36378;BME280;22402;42.746;23.606;2023-05-02T08:02:16;93938.66;;;16.35;58.20
36378;BME280;22402;42.746;23.606;2023-05-02T08:04:45;93920.25;;;16.27;58.51
36378;BME280;22402;42.746;23.606;2023-05-02T08:07:11;93929.47;;;16.39;57.17
36378;BME280;22402;42.746;23.606;2023-05-02T08:09:37;93932.56;;;16.43;58.04
36378;BME280;22402;42.746;23.606;2023-05-02T08:12:02;93924.97;;;16.48;58.16
36378;BME280;22402;42.746;23.606;2023-05-02T08:14:27;93934.34;;;16.50;58.32
36378;BME280;22402;42.746;23.606;2023-05-02T08:16:53;93936.66;;;16.53;58.67
36378;BME280;22402;42.746;23.606;2023-05-02T08:19:18;93930.91;;;16.58;60.04
36378;BME280;22402;42.746;23.606;2023-05-02T08:21:44;93927.91;;;16.61;60.32
36378;BME280;22402;42.746;23.606;2023-05-02T08:24:09;93930.03;;;16.66;59.84
36378;BME280;22402;42.746;23.606;2023-05-02T08:26:34;93919.84;;;16.62;60.16
36378;BME280;22402;42.746;23.606;2023-05-02T08:29:00;93916.84;;;16.74;60.93
36378;BME280;22402;42.746;23.606;2023-05-02T08:31:27;93921.81;;;16.77;61.17
36378;BME280;22402;42.746;23.606;2023-05-02T08:33:53;93924.75;;;16.82;61.18
36378;BME280;22402;42.746;23.606;2023-05-02T08:36:18;93922.59;;;16.85;58.73
36378;BME280;22402;42.746;23.606;2023-05-02T08:38:45;93928.19;;;16.91;57.33
36378;BME280;22402;42.746;23.606;2023-05-02T08:43:38;93919.41;;;16.98;58.93
36378;BME280;22402;42.746;23.606;2023-05-02T08:46:05;93915.47;;;17.02;58.61
36378;BME280;22402;42.746;23.606;2023-05-02T08:48:38;93923.69;;;17.07;57.73
36378;BME280;22402;42.746;23.606;2023-05-02T08:51:08;93916.88;;;17.13;57.38
36378;BME280;22402;42.746;23.606;2023-05-02T08:53:35;93917.19;;;17.18;57.86
36378;BME280;22402;42.746;23.606;2023-05-02T08:56:01;93920.94;;;17.24;58.29
36378;BME280;22402;42.746;23.606;2023-05-02T08:58:27;93911.41;;;17.23;58.86
36378;BME280;22402;42.746;23.606;2023-05-02T09:00:55;93918.94;;;17.34;58.62
36378;BME280;22402;42.746;23.606;2023-05-02T09:05:51;93916.34;;;17.49;59.15
36378;BME280;22402;42.746;23.606;2023-05-02T09:08:26;93918.09;;;17.57;58.45
36378;BME280;22402;42.746;23.606;2023-05-02T09:10:51;93912.13;;;17.63;58.26
36378;BME280;22402;42.746;23.606;2023-05-02T09:16:05;93909.41;;;17.79;58.96
36378;BME280;22402;42.746;23.606;2023-05-02T09:18:36;93906.88;;;17.86;58.67
36378;BME280;22402;42.746;23.606;2023-05-02T09:21:06;93912.91;;;17.94;58.51
36378;BME280;22402;42.746;23.606;2023-05-02T09:23:45;93904.94;;;18.03;58.47
36378;BME280;22402;42.746;23.606;2023-05-02T09:26:16;93912.59;;;18.12;57.69
36378;BME280;22402;42.746;23.606;2023-05-02T09:28:48;93915.19;;;18.20;57.22
36378;BME280;22402;42.746;23.606;2023-05-02T09:31:18;93899.25;;;18.29;56.08
36378;BME280;22402;42.746;23.606;2023-05-02T09:33:45;93897.53;;;18.36;56.43
36378;BME280;22402;42.746;23.606;2023-05-02T09:36:12;93900.91;;;18.44;56.05
36378;BME280;22402;42.746;23.606;2023-05-02T09:38:39;93896.16;;;18.55;55.08
36378;BME280;22402;42.746;23.606;2023-05-02T09:41:05;93902.34;;;18.62;55.59
36378;BME280;22402;42.746;23.606;2023-05-02T09:43:31;93895.16;;;18.71;55.28
36378;BME280;22402;42.746;23.606;2023-05-02T09:45:57;93900.22;;;18.80;54.76
36378;BME280;22402;42.746;23.606;2023-05-02T09:48:24;93879.91;;;18.81;53.71
36378;BME280;22402;42.746;23.606;2023-05-02T09:50:50;93897.00;;;19.00;52.81
36378;BME280;22402;42.746;23.606;2023-05-02T09:53:15;93886.31;;;19.08;52.87
36378;BME280;22402;42.746;23.606;2023-05-02T09:55:41;93893.78;;;19.19;52.72
36378;BME280;22402;42.746;23.606;2023-05-02T09:58:19;93886.09;;;19.24;52.14
36378;BME280;22402;42.746;23.606;2023-05-02T10:00:45;93882.59;;;19.39;51.36
36378;BME280;22402;42.746;23.606;2023-05-02T10:03:15;93888.03;;;19.52;52.94
36378;BME280;22402;42.746;23.606;2023-05-02T10:05:41;93880.81;;;19.61;54.14
36378;BME280;22402;42.746;23.606;2023-05-02T10:08:08;93876.47;;;19.74;55.50
36378;BME280;22402;42.746;23.606;2023-05-02T10:10:41;93879.03;;;19.89;56.41
36378;BME280;22402;42.746;23.606;2023-05-02T10:13:12;93871.03;;;20.04;54.55
36378;BME280;22402;42.746;23.606;2023-05-02T10:15:42;93864.59;;;20.13;51.54
36378;BME280;22402;42.746;23.606;2023-05-02T10:18:13;93870.75;;;20.20;50.13
36378;BME280;22402;42.746;23.606;2023-05-02T10:20:47;93873.88;;;20.31;50.62
36378;BME280;22402;42.746;23.606;2023-05-02T10:23:15;93867.63;;;20.38;51.25
36378;BME280;22402;42.746;23.606;2023-05-02T10:25:41;93863.38;;;20.44;50.66
36378;BME280;22402;42.746;23.606;2023-05-02T10:28:09;93872.19;;;20.51;52.97
36378;BME280;22402;42.746;23.606;2023-05-02T10:30:35;93859.81;;;20.58;50.62
36378;BME280;22402;42.746;23.606;2023-05-02T10:33:02;93854.34;;;20.60;52.07
36378;BME280;22402;42.746;23.606;2023-05-02T10:35:27;93852.75;;;20.72;50.30
36378;BME280;22402;42.746;23.606;2023-05-02T10:37:55;93849.16;;;20.80;52.43
36378;BME280;22402;42.746;23.606;2023-05-02T10:40:21;93861.81;;;20.91;51.42
36378;BME280;22402;42.746;23.606;2023-05-02T10:42:48;93857.16;;;21.00;51.89
36378;BME280;22402;42.746;23.606;2023-05-02T10:45:36;93862.72;;;21.11;52.36
36378;BME280;22402;42.746;23.606;2023-05-02T10:48:16;93853.78;;;21.26;52.03
36378;BME280;22402;42.746;23.606;2023-05-02T10:50:58;93861.44;;;21.55;51.84
36378;BME280;22402;42.746;23.606;2023-05-02T10:53:28;93862.91;;;21.78;46.64
36378;BME280;22402;42.746;23.606;2023-05-02T10:56:17;93851.91;;;21.81;45.78
36378;BME280;22402;42.746;23.606;2023-05-02T10:58:45;93832.72;;;21.66;44.14
36378;BME280;22402;42.746;23.606;2023-05-02T11:04:02;93851.28;;;21.72;44.28
36378;BME280;22402;42.746;23.606;2023-05-02T11:06:29;93850.66;;;21.77;44.92
36378;BME280;22402;42.746;23.606;2023-05-02T11:11:45;93853.94;;;21.85;45.83
36378;BME280;22402;42.746;23.606;2023-05-02T11:24:49;93840.47;;;22.40;45.29
36378;BME280;22402;42.746;23.606;2023-05-02T11:30:00;93837.78;;;23.57;41.86
36378;BME280;22402;42.746;23.606;2023-05-02T11:35:28;93825.16;;;25.14;39.01
36378;BME280;22402;42.746;23.606;2023-05-02T11:38:00;93828.41;;;25.77;36.94
36378;BME280;22402;42.746;23.606;2023-05-02T11:40:27;93824.22;;;26.23;34.85
36378;BME280;22402;42.746;23.606;2023-05-02T11:42:53;93823.09;;;26.54;32.78
36378;BME280;22402;42.746;23.606;2023-05-02T11:45:19;93804.03;;;26.50;33.61
36378;BME280;22402;42.746;23.606;2023-05-02T11:47:46;93814.81;;;26.55;33.02
36378;BME280;22402;42.746;23.606;2023-05-02T11:50:13;93818.06;;;26.34;34.17
36378;BME280;22402;42.746;23.606;2023-05-02T11:52:42;93801.88;;;26.05;33.96
36378;BME280;22402;42.746;23.606;2023-05-02T11:55:10;93831.53;;;25.74;34.11
36378;BME280;22402;42.746;23.606;2023-05-02T11:57:36;93819.78;;;25.63;35.03
36378;BME280;22402;42.746;23.606;2023-05-02T12:00:03;93813.59;;;25.51;35.37
36378;BME280;22402;42.746;23.606;2023-05-02T12:02:39;93816.88;;;25.34;36.98
36378;BME280;22402;42.746;23.606;2023-05-02T12:05:06;93750.53;;;24.89;37.71
36378;BME280;22402;42.746;23.606;2023-05-02T12:10:05;93804.81;;;25.32;37.45
36378;BME280;22402;42.746;23.606;2023-05-02T12:12:31;93793.84;;;25.21;38.82
36378;BME280;22402;42.746;23.606;2023-05-02T12:14:57;93777.69;;;25.35;36.46
36378;BME280;22402;42.746;23.606;2023-05-02T12:17:27;93790.97;;;25.53;37.54
36378;BME280;22402;42.746;23.606;2023-05-02T12:19:53;93793.00;;;25.81;37.01
36378;BME280;22402;42.746;23.606;2023-05-02T12:22:19;93791.44;;;25.92;36.29
36378;BME280;22402;42.746;23.606;2023-05-02T12:24:44;93790.50;;;25.98;35.39
36378;BME280;22402;42.746;23.606;2023-05-02T12:27:12;93787.38;;;26.01;33.67
36378;BME280;22402;42.746;23.606;2023-05-02T12:29:38;93778.31;;;26.02;35.93
36378;BME280;22402;42.746;23.606;2023-05-02T12:32:03;93779.50;;;26.06;34.25
36378;BME280;22402;42.746;23.606;2023-05-02T12:34:35;93776.22;;;26.04;34.26
36378;BME280;22402;42.746;23.606;2023-05-02T12:37:02;93784.25;;;26.16;36.34
36378;BME280;22402;42.746;23.606;2023-05-02T12:39:37;93775.88;;;26.36;33.88
36378;BME280;22402;42.746;23.606;2023-05-02T12:42:15;93766.56;;;26.62;34.11
36378;BME280;22402;42.746;23.606;2023-05-02T12:44:42;93768.41;;;26.73;34.10
36378;BME280;22402;42.746;23.606;2023-05-02T12:47:09;93760.19;;;26.75;33.75
36378;BME280;22402;42.746;23.606;2023-05-02T12:49:51;93748.41;;;26.76;32.16
36378;BME280;22402;42.746;23.606;2023-05-02T12:52:45;93754.03;;;26.74;33.01
36378;BME280;22402;42.746;23.606;2023-05-02T12:55:32;93748.09;;;26.61;33.74
36378;BME280;22402;42.746;23.606;2023-05-02T12:58:15;93745.41;;;26.72;34.11
36378;BME280;22402;42.746;23.606;2023-05-02T13:00:41;93742.56;;;26.91;32.52
36378;BME280;22402;42.746;23.606;2023-05-02T13:03:08;93749.84;;;27.07;32.52
36378;BME280;22402;42.746;23.606;2023-05-02T13:05:35;93739.59;;;27.16;32.54
36378;BME280;22402;42.746;23.606;2023-05-02T13:08:01;93748.88;;;27.25;32.78
36378;BME280;22402;42.746;23.606;2023-05-02T13:10:26;93736.72;;;27.34;33.22
36378;BME280;22402;42.746;23.606;2023-05-02T13:12:53;93733.16;;;27.45;32.56
36378;BME280;22402;42.746;23.606;2023-05-02T13:15:18;93728.22;;;27.54;32.87
36378;BME280;22402;42.746;23.606;2023-05-02T13:17:44;93726.53;;;27.65;31.66
36378;BME280;22402;42.746;23.606;2023-05-02T13:20:10;93732.53;;;27.72;31.70
36378;BME280;22402;42.746;23.606;2023-05-02T13:22:36;93744.41;;;27.76;30.45
36378;BME280;22402;42.746;23.606;2023-05-02T13:25:02;93728.00;;;27.72;31.57
36378;BME280;22402;42.746;23.606;2023-05-02T13:27:28;93739.84;;;27.77;29.91
36378;BME280;22402;42.746;23.606;2023-05-02T13:29:54;93747.00;;;27.71;30.45
36378;BME280;22402;42.746;23.606;2023-05-02T13:32:19;93735.63;;;27.64;30.58
36378;BME280;22402;42.746;23.606;2023-05-02T13:34:46;93736.13;;;27.61;30.92
36378;BME280;22402;42.746;23.606;2023-05-02T13:37:11;93730.91;;;27.54;30.17